GEC8387 RKSI-EDDF
Flight info
| Callsign | GEC8387 |
|---|---|
| Flight time | N/A |
| Altitude | 28000 |
| Route | BINIL Y697 AGAVO/K0887S0840 A591 IKEKA W4 HCH W200 DOVIV W55 PAMRU W34 VYK B215 ADBES/K0906S0920 B215 LEBOM W104 VEXEB W47 IDSOT W48 DKO W66 NUKTI B215 POVEK/K0893S0980 B215 FKG A368 SARIN/K0891F320 N161 ABURA/K0885F340 N161 GASBI/N0479F340 N161 LEYLA N644 ADEKI DCT BADIR DCT LAGAS DCT FOQUS DCT SARPI UM10 ATVAM/N0471F360 UM10 GOKPA UL746 ODERO DCT OPT DCT TEGRI DCT ARSIN DCT SUBEN DCT AKINI T161 DEBHI DEBHI1C |
| Aircraft | MD11/H-SDE1E2E3FGHIJ2J3J4J5M1RWXY/LB1D1 |
Departure
| Time | 2026-05-07 22:13 |
|---|---|
| Airport | Incheon International Airport (RKSI) |
Arrival
| Time | N/A |
|---|---|
| Airport | Frankfurt Main Airport (EDDF) |
| Time | Latitude | Longitude | Altitude | Speed | Heading |
|---|---|---|---|---|---|
| 2026-05-07 21:45 | 37.47131 | 126.45786 | 32 ft | 0 kts | 144° |
| 2026-05-07 21:59 | 37.47131 | 126.45785 | 32 ft | 1 kts | 145° |
| 2026-05-07 21:59 | 37.47144 | 126.45774 | 32 ft | 2 kts | 144° |
| 2026-05-07 22:00 | 37.47156 | 126.45763 | 32 ft | 2 kts | 144° |
| 2026-05-07 22:00 | 37.47169 | 126.45753 | 32 ft | 2 kts | 144° |
| 2026-05-07 22:00 | 37.47181 | 126.45741 | 32 ft | 2 kts | 146° |
| 2026-05-07 22:00 | 37.47195 | 126.45734 | 32 ft | 2 kts | 173° |
| 2026-05-07 22:01 | 37.47210 | 126.45735 | 32 ft | 2 kts | 195° |
| 2026-05-07 22:01 | 37.47224 | 126.45743 | 32 ft | 2 kts | 218° |
| 2026-05-07 22:01 | 37.47232 | 126.45753 | 32 ft | 0 kts | 235° |
| 2026-05-07 22:01 | 37.47234 | 126.45757 | 32 ft | 0 kts | 236° |
| 2026-05-07 22:03 | 37.47233 | 126.45757 | 32 ft | 0 kts | 235° |
| 2026-05-07 22:03 | 37.47228 | 126.45747 | 32 ft | 2 kts | 234° |
| 2026-05-07 22:03 | 37.47213 | 126.45721 | 32 ft | 4 kts | 234° |
| 2026-05-07 22:04 | 37.47193 | 126.45686 | 32 ft | 5 kts | 234° |
| 2026-05-07 22:04 | 37.47171 | 126.45647 | 32 ft | 5 kts | 234° |
| 2026-05-07 22:04 | 37.47146 | 126.45603 | 32 ft | 6 kts | 234° |
| 2026-05-07 22:04 | 37.47119 | 126.45557 | 32 ft | 6 kts | 232° |
| 2026-05-07 22:05 | 37.47087 | 126.45522 | 32 ft | 2 kts | 192° |
| 2026-05-07 22:05 | 37.47063 | 126.45523 | 32 ft | 3 kts | 173° |
| 2026-05-07 22:05 | 37.47026 | 126.45541 | 32 ft | 9 kts | 151° |
| 2026-05-07 22:05 | 37.46959 | 126.45599 | 32 ft | 12 kts | 144° |
| 2026-05-07 22:06 | 37.46888 | 126.45663 | 32 ft | 12 kts | 144° |
| 2026-05-07 22:06 | 37.46817 | 126.45726 | 32 ft | 12 kts | 144° |
| 2026-05-07 22:06 | 37.46747 | 126.45789 | 32 ft | 12 kts | 144° |
| 2026-05-07 22:06 | 37.46677 | 126.45850 | 32 ft | 12 kts | 145° |
| 2026-05-07 22:07 | 37.46608 | 126.45910 | 32 ft | 11 kts | 145° |
| 2026-05-07 22:07 | 37.46540 | 126.45969 | 32 ft | 11 kts | 144° |
| 2026-05-07 22:07 | 37.46474 | 126.46029 | 32 ft | 11 kts | 144° |
| 2026-05-07 22:07 | 37.46408 | 126.46088 | 32 ft | 11 kts | 143° |
| 2026-05-07 22:08 | 37.46344 | 126.46146 | 32 ft | 11 kts | 145° |
| 2026-05-07 22:08 | 37.46279 | 126.46203 | 32 ft | 11 kts | 145° |
| 2026-05-07 22:08 | 37.46216 | 126.46258 | 32 ft | 10 kts | 145° |
| 2026-05-07 22:08 | 37.46155 | 126.46313 | 32 ft | 10 kts | 144° |
| 2026-05-07 22:09 | 37.46095 | 126.46367 | 32 ft | 10 kts | 144° |
| 2026-05-07 22:09 | 37.46036 | 126.46420 | 32 ft | 10 kts | 144° |
| 2026-05-07 22:09 | 37.45977 | 126.46472 | 32 ft | 10 kts | 144° |
| 2026-05-07 22:09 | 37.45919 | 126.46524 | 32 ft | 10 kts | 144° |
| 2026-05-07 22:10 | 37.45861 | 126.46575 | 32 ft | 10 kts | 144° |
| 2026-05-07 22:10 | 37.45802 | 126.46619 | 32 ft | 9 kts | 166° |
| 2026-05-07 22:10 | 37.45744 | 126.46605 | 32 ft | 7 kts | 214° |
| 2026-05-07 22:10 | 37.45707 | 126.46553 | 32 ft | 9 kts | 234° |
| 2026-05-07 22:11 | 37.45684 | 126.46495 | 32 ft | 9 kts | 257° |
| 2026-05-07 22:11 | 37.45699 | 126.46422 | 32 ft | 8 kts | 313° |
| 2026-05-07 22:11 | 37.45744 | 126.46378 | 32 ft | 6 kts | 321° |
| 2026-05-07 22:11 | 37.45775 | 126.46346 | 32 ft | 0 kts | 323° |
| 2026-05-07 22:12 | 37.45863 | 126.46266 | 32 ft | 43 kts | 324° |
| 2026-05-07 22:12 | 37.46273 | 126.45903 | 32 ft | 99 kts | 324° |
| 2026-05-07 22:12 | 37.46981 | 126.45272 | 33 ft | 148 kts | 324° |
| 2026-05-07 22:13 | 37.47946 | 126.44412 | 34 ft | 189 kts | 323° |
| 2026-05-07 22:13 | 37.49043 | 126.43404 | 453 ft | 189 kts | 322° |
| 2026-05-07 22:13 | 37.50092 | 126.42444 | 960 ft | 185 kts | 321° |
| 2026-05-07 22:13 | 37.51123 | 126.41493 | 1436 ft | 184 kts | 322° |
| 2026-05-07 22:14 | 37.52193 | 126.40496 | 1847 ft | 193 kts | 322° |
| 2026-05-07 22:14 | 37.53266 | 126.39493 | 2498 ft | 190 kts | 323° |
| 2026-05-07 22:14 | 37.54061 | 126.38765 | 2935 ft | 191 kts | 323° |
| 2026-05-07 22:14 | 37.55173 | 126.37743 | 3277 ft | 207 kts | 323° |
| 2026-05-07 22:15 | 37.56370 | 126.36493 | 3380 ft | 233 kts | 309° |
| 2026-05-07 22:15 | 37.57287 | 126.34776 | 3946 ft | 243 kts | 300° |
| 2026-05-07 22:15 | 37.57854 | 126.32703 | 4370 ft | 261 kts | 282° |
| 2026-05-07 22:15 | 37.58030 | 126.30348 | 4637 ft | 282 kts | 276° |
| 2026-05-07 22:16 | 37.58042 | 126.27846 | 5301 ft | 285 kts | 275° |
| 2026-05-07 22:16 | 37.57999 | 126.25396 | 6082 ft | 286 kts | 274° |
| 2026-05-07 22:16 | 37.57903 | 126.22776 | 6401 ft | 303 kts | 268° |
| 2026-05-07 22:16 | 37.57510 | 126.20206 | 7387 ft | 300 kts | 261° |
| 2026-05-07 22:17 | 37.56791 | 126.17711 | 8127 ft | 307 kts | 252° |
| 2026-05-07 22:17 | 37.55829 | 126.15218 | 8862 ft | 310 kts | 250° |
| 2026-05-07 22:17 | 37.54833 | 126.12752 | 9577 ft | 313 kts | 250° |
| 2026-05-07 22:17 | 37.53853 | 126.10281 | 10248 ft | 316 kts | 251° |
| 2026-05-07 22:18 | 37.52850 | 126.07682 | 10482 ft | 336 kts | 251° |
| 2026-05-07 22:18 | 37.50689 | 126.02056 | 10841 ft | 376 kts | 250° |
| 2026-05-07 22:18 | 37.49524 | 125.99071 | 11553 ft | 379 kts | 250° |
| 2026-05-07 22:19 | 37.48370 | 125.96114 | 12608 ft | 373 kts | 250° |
| 2026-05-07 22:19 | 37.47241 | 125.93182 | 13237 ft | 378 kts | 250° |
| 2026-05-07 22:19 | 37.46087 | 125.90183 | 14016 ft | 378 kts | 250° |
| 2026-05-07 22:19 | 37.44938 | 125.87201 | 14703 ft | 381 kts | 250° |
| 2026-05-07 22:20 | 37.43785 | 125.84202 | 15350 ft | 384 kts | 250° |
| 2026-05-07 22:20 | 37.42619 | 125.81182 | 16093 ft | 384 kts | 250° |
| 2026-05-07 22:20 | 37.41576 | 125.78108 | 16747 ft | 382 kts | 257° |
| 2026-05-07 22:20 | 37.40830 | 125.74884 | 17355 ft | 380 kts | 263° |
| 2026-05-07 22:21 | 37.40463 | 125.71626 | 17985 ft | 377 kts | 271° |
| 2026-05-07 22:21 | 37.40369 | 125.68322 | 18568 ft | 379 kts | 272° |
| 2026-05-07 22:21 | 37.40340 | 125.65042 | 19195 ft | 380 kts | 272° |
| 2026-05-07 22:21 | 37.40312 | 125.61683 | 19802 ft | 382 kts | 272° |
| 2026-05-07 22:22 | 37.40267 | 125.58362 | 20308 ft | 386 kts | 272° |
| 2026-05-07 22:22 | 37.40212 | 125.55003 | 20906 ft | 387 kts | 272° |
| 2026-05-07 22:22 | 37.40151 | 125.51630 | 21473 ft | 389 kts | 272° |
| 2026-05-07 22:22 | 37.40089 | 125.48218 | 21962 ft | 392 kts | 272° |
| 2026-05-07 22:23 | 37.40031 | 125.44788 | 22533 ft | 393 kts | 272° |
| 2026-05-07 22:23 | 37.39970 | 125.41310 | 22994 ft | 397 kts | 272° |
| 2026-05-07 22:23 | 37.39912 | 125.37837 | 23531 ft | 399 kts | 272° |
| 2026-05-07 22:23 | 37.39861 | 125.34531 | 23944 ft | 402 kts | 271° |
| 2026-05-07 22:24 | 37.39806 | 125.31069 | 24465 ft | 403 kts | 271° |
| 2026-05-07 22:24 | 37.39755 | 125.27533 | 24953 ft | 405 kts | 272° |
| 2026-05-07 22:24 | 37.39714 | 125.24442 | 25303 ft | 407 kts | 271° |
| 2026-05-07 22:24 | 37.39669 | 125.20882 | 25809 ft | 408 kts | 271° |
| 2026-05-07 22:25 | 37.39614 | 125.17325 | 26254 ft | 411 kts | 271° |
| 2026-05-07 22:25 | 37.39539 | 125.13724 | 26670 ft | 414 kts | 271° |
| 2026-05-07 22:25 | 37.39457 | 125.10072 | 27140 ft | 415 kts | 271° |
| 2026-05-07 22:25 | 37.39381 | 125.06435 | 27597 ft | 417 kts | 271° |
| 2026-05-07 22:26 | 37.39312 | 125.02779 | 27999 ft | 420 kts | 271° |
| 2026-05-07 22:26 | 37.39247 | 124.99012 | 28001 ft | 434 kts | 271° |
| 2026-05-07 22:26 | 37.39178 | 124.95104 | 27954 ft | 434 kts | 271° |
| 2026-05-07 22:26 | 37.39104 | 124.91348 | 27958 ft | 422 kts | 271° |
| 2026-05-07 22:27 | 37.39036 | 124.87687 | 27967 ft | 411 kts | 271° |
| 2026-05-07 22:27 | 37.38976 | 124.84141 | 27995 ft | 405 kts | 271° |
| 2026-05-07 22:27 | 37.38919 | 124.80544 | 28054 ft | 409 kts | 271° |
| 2026-05-07 22:28 | 37.38756 | 124.73297 | 28033 ft | 411 kts | 271° |
| 2026-05-07 22:28 | 37.38575 | 124.66164 | 28029 ft | 411 kts | 271° |
| 2026-05-07 22:29 | 37.38419 | 124.58916 | 28027 ft | 412 kts | 271° |
| 2026-05-07 22:29 | 37.38262 | 124.51743 | 28022 ft | 409 kts | 272° |
| 2026-05-07 22:30 | 37.37758 | 124.44618 | 28053 ft | 417 kts | 263° |
| 2026-05-07 22:30 | 37.35858 | 124.37666 | 28023 ft | 427 kts | 250° |
| 2026-05-07 22:31 | 37.32801 | 124.31276 | 28079 ft | 436 kts | 245° |
| 2026-05-07 22:31 | 37.29454 | 124.24723 | 28016 ft | 434 kts | 245° |
| 2026-05-07 22:32 | 37.28912 | 124.23648 | 28011 ft | 432 kts | 245° |